createdAt,value
2018-06-11T00:02:13.844Z,91.90
2018-06-11T00:04:43.080Z,91.90
2018-06-11T00:09:40.967Z,91.70
2018-06-11T00:12:10.098Z,91.50
2018-06-11T00:14:39.235Z,91.40
2018-06-11T00:19:37.121Z,91.70
2018-06-11T00:22:06.280Z,92.00
2018-06-11T00:24:35.390Z,91.70
2018-06-11T00:27:04.545Z,91.40
2018-06-11T00:29:33.693Z,91.70
2018-06-11T00:32:03.060Z,91.80
2018-06-11T00:34:32.178Z,91.60
2018-06-11T00:37:01.319Z,91.80
2018-06-11T00:39:30.587Z,91.80
2018-06-11T00:41:59.745Z,92.10
2018-06-11T00:44:28.865Z,92.10
2018-06-11T00:46:57.974Z,92.10
2018-06-11T00:49:27.124Z,92.10
2018-06-11T00:51:56.358Z,92.10
2018-06-11T00:54:25.554Z,92.20
2018-06-11T00:56:54.692Z,92.50
2018-06-11T01:01:52.533Z,92.60
2018-06-11T01:04:21.650Z,92.50
2018-06-11T01:06:50.830Z,92.40
2018-06-11T01:09:19.938Z,92.60
2018-06-11T01:11:49.186Z,92.50
2018-06-11T01:14:18.480Z,92.30
2018-06-11T01:16:47.666Z,92.40
2018-06-11T01:19:16.845Z,92.60
2018-06-11T01:21:45.992Z,92.70
2018-06-11T01:26:43.801Z,92.70
2018-06-11T01:29:12.912Z,92.80
2018-06-11T01:31:42.045Z,92.50
2018-06-11T01:34:11.183Z,92.70
2018-06-11T01:36:40.325Z,92.40
2018-06-11T01:39:09.507Z,92.40
2018-06-11T01:41:38.606Z,92.40
2018-06-11T01:44:07.722Z,92.70
2018-06-11T01:46:36.846Z,92.70
2018-06-11T01:49:06.039Z,93.00
2018-06-11T01:51:35.216Z,93.20
2018-06-11T01:54:04.366Z,93.20
2018-06-11T01:56:33.629Z,93.50
2018-06-11T01:59:02.782Z,93.80
2018-06-11T02:01:32.225Z,94.10
2018-06-11T02:04:01.341Z,93.80
2018-06-11T02:06:30.479Z,93.30
2018-06-11T02:08:59.612Z,92.90
2018-06-11T02:11:28.794Z,92.70
2018-06-11T02:13:57.876Z,92.70
2018-06-11T02:18:55.727Z,92.70
2018-06-11T02:21:24.857Z,92.60
2018-06-11T02:23:54.046Z,92.70
2018-06-11T02:26:23.217Z,92.80
2018-06-11T02:28:52.337Z,92.70
2018-06-11T02:31:21.495Z,93.00
2018-06-11T02:33:50.596Z,93.00
2018-06-11T02:36:19.747Z,93.30
2018-06-11T02:38:48.879Z,93.20
2018-06-11T02:41:18.003Z,93.10
2018-06-11T02:43:47.129Z,93.00
2018-06-11T02:46:16.259Z,93.10
2018-06-11T02:48:45.458Z,93.20
2018-06-11T02:51:14.613Z,93.30
2018-06-11T02:53:43.813Z,93.30
2018-06-11T02:56:12.970Z,93.50
2018-06-11T02:58:42.098Z,93.50
2018-06-11T03:01:11.192Z,94.10
2018-06-11T03:03:40.310Z,94.50
2018-06-11T03:06:09.483Z,94.70
2018-06-11T03:08:38.664Z,94.50
2018-06-11T03:11:07.820Z,94.70
2018-06-11T03:13:36.929Z,94.30
2018-06-11T03:16:06.152Z,94.70
2018-06-11T03:18:35.358Z,94.80
2018-06-11T03:21:04.508Z,94.90
2018-06-11T03:23:33.797Z,95.10
2018-06-11T03:26:02.928Z,95.40
2018-06-11T03:28:32.051Z,95.60
2018-06-11T03:31:01.273Z,95.30
2018-06-11T03:33:30.437Z,94.90
2018-06-11T03:35:59.566Z,94.80
2018-06-11T03:38:28.751Z,94.90
2018-06-11T03:40:57.872Z,94.60
2018-06-11T03:43:27.030Z,94.40
2018-06-11T03:45:56.142Z,94.30
2018-06-11T03:48:25.290Z,94.30
2018-06-11T03:50:54.437Z,94.20
2018-06-11T03:55:52.285Z,94.00
2018-06-11T03:58:21.423Z,94.00
2018-06-11T04:00:50.558Z,94.00
2018-06-11T04:03:19.657Z,93.90
2018-06-11T04:05:48.798Z,94.20
2018-06-11T04:08:17.917Z,94.40
2018-06-11T04:10:47.130Z,94.50
2018-06-11T04:13:16.199Z,94.40
2018-06-11T04:15:45.388Z,94.30
2018-06-11T04:18:14.535Z,94.10
2018-06-11T04:20:43.659Z,94.00
2018-06-11T04:23:12.800Z,93.90
2018-06-11T04:25:41.935Z,93.80
2018-06-11T04:28:11.089Z,93.60
2018-06-11T04:30:40.264Z,93.50
2018-06-11T04:33:09.437Z,93.50
2018-06-11T04:35:38.617Z,93.50
2018-06-11T04:38:07.750Z,93.20
2018-06-11T04:40:37.036Z,93.10
2018-06-11T04:43:06.182Z,92.80
2018-06-11T04:45:35.365Z,93.20
2018-06-11T04:48:04.464Z,93.20
2018-06-11T04:50:33.638Z,93.40
2018-06-11T04:53:02.803Z,93.60
2018-06-11T04:55:31.940Z,93.40
2018-06-11T04:58:01.149Z,93.50
2018-06-11T05:00:30.301Z,93.60
2018-06-11T05:02:59.444Z,93.50
2018-06-11T05:05:28.606Z,93.60
2018-06-11T05:07:57.803Z,93.70
2018-06-11T05:10:27.239Z,93.80
2018-06-11T05:12:56.334Z,93.70
2018-06-11T05:15:25.570Z,93.70
2018-06-11T05:17:54.874Z,93.90
2018-06-11T05:20:24.023Z,93.50
2018-06-11T05:25:21.911Z,93.20
2018-06-11T05:27:51.062Z,93.30
2018-06-11T05:30:20.315Z,93.40
2018-06-11T05:32:49.429Z,93.10
2018-06-11T05:35:18.574Z,93.00
2018-06-11T05:37:47.767Z,93.00
2018-06-11T05:40:17.127Z,93.10
2018-06-11T05:42:46.188Z,93.10
2018-06-11T05:45:15.484Z,92.40
2018-06-11T05:47:44.687Z,92.30
2018-06-11T05:50:13.953Z,92.00
2018-06-11T05:52:43.078Z,91.70
2018-06-11T05:55:12.248Z,91.50
2018-06-11T05:57:41.520Z,91.50
2018-06-11T06:00:10.646Z,91.20
2018-06-11T06:02:40.015Z,91.30
2018-06-11T06:05:09.224Z,91.20
2018-06-11T06:07:38.362Z,91.30
2018-06-11T06:10:07.476Z,91.10
2018-06-11T06:12:36.634Z,90.90
2018-06-11T06:15:06.265Z,90.60
2018-06-11T06:17:35.398Z,90.70
2018-06-11T06:20:05.191Z,90.30
2018-06-11T06:22:34.381Z,90.00
2018-06-11T06:25:03.632Z,89.40
2018-06-11T06:27:32.766Z,88.60
2018-06-11T06:30:01.954Z,87.90
2018-06-11T06:32:31.119Z,86.90
2018-06-11T06:35:00.296Z,87.20
2018-06-11T06:37:29.425Z,88.00
2018-06-11T06:39:58.613Z,88.90
2018-06-11T06:42:27.717Z,88.90
2018-06-11T06:44:56.856Z,88.60
2018-06-11T06:47:26.055Z,87.60
2018-06-11T06:49:55.278Z,87.20
2018-06-11T06:52:24.433Z,85.90
2018-06-11T06:54:53.565Z,85.90
2018-06-11T06:57:22.719Z,85.40
2018-06-11T06:59:51.916Z,82.80
2018-06-11T07:02:22.828Z,78.50
2018-06-11T07:04:52.019Z,74.10
2018-06-11T07:07:21.297Z,72.00
2018-06-11T07:09:50.423Z,72.60
2018-06-11T07:12:19.558Z,72.90
2018-06-11T07:14:48.789Z,71.40
2018-06-11T07:19:46.701Z,73.60
2018-06-11T07:22:15.828Z,76.10
2018-06-11T07:24:45.806Z,79.60
2018-06-11T07:27:14.966Z,81.90
2018-06-11T07:29:44.177Z,82.90
2018-06-11T07:34:41.963Z,84.70
2018-06-11T07:37:11.122Z,85.30
2018-06-11T07:39:40.269Z,85.40
2018-06-11T07:42:09.391Z,85.80
2018-06-11T07:44:38.542Z,84.80
2018-06-11T07:47:07.737Z,84.60
2018-06-11T07:49:36.996Z,85.50
2018-06-11T07:52:06.130Z,85.10
2018-06-11T07:54:35.300Z,86.00
2018-06-11T07:57:04.473Z,85.70
2018-06-11T07:59:33.634Z,86.10
2018-06-11T08:02:03.333Z,86.00
2018-06-11T08:07:07.828Z,85.50
2018-06-11T08:09:37.099Z,85.00
2018-06-11T08:12:06.364Z,84.70
2018-06-11T08:14:35.517Z,83.80
2018-06-11T08:17:04.717Z,83.70
2018-06-11T08:19:33.880Z,84.30
2018-06-11T08:24:31.730Z,83.80
2018-06-11T08:27:00.841Z,83.60
2018-06-11T08:29:29.932Z,83.40
2018-06-11T08:32:00.104Z,83.20
2018-06-11T08:34:29.215Z,80.60
2018-06-11T08:36:58.352Z,77.30
2018-06-11T08:39:27.489Z,69.30
2018-06-11T08:41:56.648Z,64.20
2018-06-11T08:44:25.777Z,65.80
2018-06-11T08:46:54.993Z,62.50
2018-06-11T08:49:24.156Z,63.50
2018-06-11T08:51:53.295Z,66.80
2018-06-11T08:54:22.456Z,67.40
2018-06-11T08:56:51.777Z,68.40
2018-06-11T08:59:20.931Z,69.40
2018-06-11T09:01:50.199Z,71.20
2018-06-11T09:04:19.341Z,70.90
2018-06-11T09:06:48.599Z,71.50
2018-06-11T09:09:17.779Z,71.50
2018-06-11T09:11:46.962Z,71.10
2018-06-11T09:14:16.141Z,71.10
2018-06-11T09:16:45.386Z,71.80
2018-06-11T09:19:14.633Z,72.00
2018-06-11T09:21:43.814Z,72.50
2018-06-11T09:24:12.941Z,73.50
2018-06-11T09:26:42.158Z,73.10
2018-06-11T09:29:11.292Z,73.20
2018-06-11T09:31:40.428Z,73.60
2018-06-11T09:34:09.601Z,73.60
2018-06-11T09:36:38.745Z,74.80
2018-06-11T09:39:08.612Z,75.50
2018-06-11T09:41:38.158Z,76.80
2018-06-11T09:44:07.321Z,78.10
2018-06-11T09:46:36.477Z,79.30
2018-06-11T09:49:05.753Z,79.80
2018-06-11T09:51:36.154Z,80.20
2018-06-11T09:54:05.329Z,80.30
2018-06-11T09:56:34.515Z,80.60
2018-06-11T09:59:03.688Z,80.50
2018-06-11T10:01:32.901Z,80.70
2018-06-11T10:04:03.003Z,81.10
2018-06-11T10:06:32.131Z,80.40
2018-06-11T10:09:01.264Z,79.90
2018-06-11T10:11:30.426Z,80.50
2018-06-11T10:13:59.594Z,79.80
2018-06-11T10:16:29.023Z,79.50
2018-06-11T10:18:58.207Z,78.60
2018-06-11T10:21:27.379Z,77.80
2018-06-11T10:23:56.599Z,76.50
2018-06-11T10:26:25.736Z,76.30
2018-06-11T10:28:55.558Z,74.70
2018-06-11T10:31:24.828Z,74.60
2018-06-11T10:33:54.094Z,73.00
2018-06-11T10:36:23.231Z,72.40
2018-06-11T10:38:52.365Z,71.70
2018-06-11T10:41:21.501Z,72.30
2018-06-11T10:43:50.689Z,72.10
2018-06-11T10:46:19.821Z,71.50
2018-06-11T10:48:48.952Z,72.90
2018-06-11T10:51:18.085Z,73.10
2018-06-11T10:53:47.176Z,73.30
2018-06-11T10:56:16.298Z,70.10
2018-06-11T10:58:45.424Z,69.90
2018-06-11T11:01:14.570Z,69.50
2018-06-11T11:03:43.717Z,69.30
2018-06-11T11:06:12.930Z,69.30
2018-06-11T11:08:42.050Z,69.40
2018-06-11T11:11:11.175Z,70.20
2018-06-11T11:13:40.290Z,69.90
2018-06-11T11:18:38.233Z,70.20
2018-06-11T11:21:07.433Z,69.70
2018-06-11T11:23:36.794Z,69.90
2018-06-11T11:26:05.888Z,70.40
2018-06-11T11:28:34.997Z,71.40
2018-06-11T11:31:04.134Z,71.70
2018-06-11T11:33:33.313Z,72.10
2018-06-11T11:36:02.484Z,72.00
2018-06-11T11:38:31.639Z,71.50
2018-06-11T11:41:00.763Z,71.50
2018-06-11T11:43:29.903Z,71.40
2018-06-11T11:45:59.110Z,71.00
2018-06-11T11:48:28.254Z,71.40
2018-06-11T11:50:57.485Z,71.40
2018-06-11T11:53:26.601Z,71.30
2018-06-11T11:55:55.769Z,71.50
2018-06-11T11:58:24.945Z,71.70
2018-06-11T12:00:54.078Z,71.20
2018-06-11T12:03:23.236Z,71.00
2018-06-11T12:05:52.434Z,71.00
2018-06-11T12:10:51.305Z,70.30
2018-06-11T12:13:20.663Z,69.90
2018-06-11T12:15:49.773Z,70.40
2018-06-11T12:18:18.953Z,69.70
2018-06-11T12:20:48.107Z,70.20
2018-06-11T12:23:17.367Z,69.40
2018-06-11T12:25:46.542Z,68.80
2018-06-11T12:28:15.648Z,68.90
2018-06-11T12:30:44.814Z,68.50
2018-06-11T12:33:13.979Z,67.90
2018-06-11T12:35:43.183Z,68.60
2018-06-11T12:38:12.388Z,68.90
2018-06-11T12:40:41.546Z,69.40
2018-06-11T12:43:10.727Z,70.60
2018-06-11T12:45:39.907Z,70.00
2018-06-11T12:48:09.076Z,69.90
2018-06-11T12:50:38.299Z,70.70
2018-06-11T12:53:07.402Z,71.80
2018-06-11T12:55:36.653Z,73.20
2018-06-11T12:58:05.806Z,73.10
2018-06-11T13:00:35.044Z,73.40
2018-06-11T13:03:04.202Z,73.10
2018-06-11T13:05:33.379Z,73.30
2018-06-11T13:08:02.537Z,74.10
2018-06-11T13:10:31.710Z,74.50
2018-06-11T13:13:00.880Z,75.00
2018-06-11T13:15:30.054Z,75.40
2018-06-11T13:17:59.197Z,75.50
2018-06-11T13:20:28.336Z,75.50
2018-06-11T13:22:57.463Z,74.30
2018-06-11T13:25:26.705Z,72.90
2018-06-11T13:27:55.843Z,71.30
2018-06-11T13:30:25.031Z,70.80
2018-06-11T13:32:54.170Z,71.00
2018-06-11T13:35:23.403Z,70.50
2018-06-11T13:37:52.606Z,70.60
2018-06-11T13:40:21.745Z,69.70
2018-06-11T13:42:50.878Z,70.70
2018-06-11T13:45:20.129Z,71.60
2018-06-11T13:50:17.972Z,73.50
2018-06-11T13:52:47.095Z,73.90
2018-06-11T13:55:16.206Z,74.20
2018-06-11T13:57:45.367Z,74.30
2018-06-11T14:00:14.511Z,74.60
2018-06-11T14:02:43.646Z,75.10
2018-06-11T14:05:12.770Z,74.80
2018-06-11T14:07:41.899Z,74.90
2018-06-11T14:12:39.848Z,74.80
2018-06-11T14:15:09.148Z,75.30
2018-06-11T14:17:38.301Z,75.50
2018-06-11T14:20:07.439Z,75.10
2018-06-11T14:22:36.574Z,74.80
2018-06-11T14:25:05.730Z,74.40
2018-06-11T14:27:34.930Z,72.40
2018-06-11T14:30:04.131Z,71.90
2018-06-11T14:32:33.282Z,73.00
2018-06-11T14:35:02.407Z,73.00
2018-06-11T14:37:31.643Z,72.00
2018-06-11T14:40:00.790Z,71.50
2018-06-11T14:42:29.986Z,71.80
2018-06-11T14:44:59.171Z,71.50
2018-06-11T14:47:28.465Z,71.70
2018-06-11T14:49:57.640Z,71.70
2018-06-11T14:52:26.786Z,70.10
2018-06-11T14:54:56.000Z,71.00
2018-06-11T14:57:25.141Z,72.10
2018-06-11T14:59:54.295Z,72.70
2018-06-11T15:02:23.508Z,73.60
2018-06-11T15:04:52.691Z,74.00
2018-06-11T15:07:21.842Z,74.00
2018-06-11T15:09:51.029Z,74.30
2018-06-11T15:12:20.185Z,75.90
2018-06-11T15:14:49.382Z,75.20
2018-06-11T15:17:18.514Z,76.60
2018-06-11T15:19:47.688Z,77.50
2018-06-11T15:22:16.886Z,82.30
2018-06-11T15:24:46.073Z,84.60
2018-06-11T15:27:15.419Z,84.30
2018-06-11T15:29:44.602Z,85.70
2018-06-11T15:32:15.006Z,89.30
2018-06-11T15:34:44.173Z,88.40
2018-06-11T15:37:13.438Z,90.10
2018-06-11T15:39:42.596Z,90.30
2018-06-11T15:42:11.722Z,90.40
2018-06-11T15:44:40.884Z,91.00
2018-06-11T15:47:10.134Z,89.70
2018-06-11T15:49:39.238Z,89.20
2018-06-11T15:52:08.395Z,86.30
2018-06-11T15:54:37.553Z,86.10
2018-06-11T15:57:06.750Z,81.30
2018-06-11T15:59:35.919Z,82.60
2018-06-11T16:02:05.147Z,82.50
2018-06-11T16:04:34.320Z,81.00
2018-06-11T16:07:03.501Z,82.90
2018-06-11T16:09:32.661Z,84.90
2018-06-11T16:12:01.847Z,88.90
2018-06-11T16:14:31.007Z,90.60
2018-06-11T16:17:00.161Z,90.50
2018-06-11T16:19:29.353Z,91.20
2018-06-11T16:21:58.515Z,91.20
2018-06-11T16:24:27.661Z,91.70
2018-06-11T16:26:56.955Z,92.40
2018-06-11T16:29:26.144Z,91.80
2018-06-11T16:31:55.354Z,91.90
2018-06-11T16:34:24.537Z,91.90
2018-06-11T16:36:53.749Z,91.40
2018-06-11T16:39:23.099Z,91.80
2018-06-11T16:41:52.404Z,91.80
2018-06-11T16:44:21.547Z,91.50
2018-06-11T16:46:50.694Z,91.20
2018-06-11T16:49:19.940Z,90.90
2018-06-11T16:51:49.120Z,91.00
2018-06-11T16:54:18.315Z,90.80
2018-06-11T16:56:47.583Z,91.10
2018-06-11T16:59:16.791Z,91.30
2018-06-11T17:01:45.957Z,91.90
2018-06-11T17:04:15.186Z,92.20
2018-06-11T17:06:44.397Z,91.80
2018-06-11T17:09:13.494Z,92.20
2018-06-11T17:11:42.711Z,92.30
2018-06-11T17:14:11.946Z,91.90
2018-06-11T17:16:41.098Z,91.70
2018-06-11T17:19:10.276Z,92.00
2018-06-11T17:21:39.529Z,91.80
2018-06-11T17:24:08.782Z,91.60
2018-06-11T17:26:37.914Z,92.20
2018-06-11T17:29:07.099Z,92.10
2018-06-11T17:31:36.308Z,92.20
2018-06-11T17:34:05.488Z,92.80
2018-06-11T17:36:34.657Z,92.70
2018-06-11T17:39:04.815Z,92.60
2018-06-11T17:41:34.090Z,92.70
2018-06-11T17:44:04.182Z,92.70
2018-06-11T17:46:35.646Z,92.50
2018-06-11T17:49:04.880Z,92.80
2018-06-11T17:51:34.064Z,92.40
2018-06-11T17:54:03.278Z,92.60
2018-06-11T17:56:32.444Z,92.60
2018-06-11T17:59:01.696Z,92.10
2018-06-11T18:01:30.894Z,92.30
2018-06-11T18:04:00.034Z,92.10
2018-06-11T18:06:29.213Z,92.00
2018-06-11T18:08:58.332Z,92.10
2018-06-11T18:11:27.506Z,92.00
2018-06-11T18:13:56.653Z,92.10
2018-06-11T18:16:25.850Z,92.40
2018-06-11T18:18:56.355Z,92.10
2018-06-11T18:21:25.554Z,92.00
2018-06-11T18:23:54.704Z,91.90
2018-06-11T18:26:23.894Z,91.90
2018-06-11T18:28:53.129Z,91.70
2018-06-11T18:31:22.344Z,91.50
2018-06-11T18:33:51.636Z,92.10
2018-06-11T18:36:22.138Z,91.50
2018-06-11T18:41:22.608Z,92.20
2018-06-11T18:43:51.796Z,92.30
2018-06-11T18:46:21.058Z,92.00
2018-06-11T18:48:50.210Z,92.30
2018-06-11T18:51:19.367Z,92.00
2018-06-11T18:53:48.518Z,91.60
2018-06-11T18:56:17.654Z,91.60
2018-06-11T18:58:46.794Z,91.90
2018-06-11T19:01:15.945Z,92.00
2018-06-11T19:03:45.191Z,91.50
2018-06-11T19:06:14.342Z,91.80
2018-06-11T19:11:12.314Z,91.70
2018-06-11T19:13:41.464Z,91.70
2018-06-11T19:16:10.986Z,91.80
2018-06-11T19:18:40.155Z,91.40
2018-06-11T19:21:09.362Z,91.60
2018-06-11T19:23:38.583Z,91.50
2018-06-11T19:26:07.723Z,91.50
2018-06-11T19:28:36.932Z,91.40
2018-06-11T19:31:06.091Z,91.10
2018-06-11T19:33:35.239Z,91.10
2018-06-11T19:36:04.458Z,91.10
2018-06-11T19:38:33.654Z,91.00
2018-06-11T19:41:02.805Z,91.00
2018-06-11T19:43:32.049Z,91.00
2018-06-11T19:46:01.251Z,90.80
2018-06-11T19:48:30.408Z,91.00
2018-06-11T19:50:59.706Z,90.70
2018-06-11T19:53:28.811Z,90.60
2018-06-11T19:55:58.120Z,90.70
2018-06-11T19:58:27.255Z,91.00
2018-06-11T20:00:56.450Z,91.20
2018-06-11T20:03:25.686Z,91.10
2018-06-11T20:05:54.946Z,90.80
2018-06-11T20:08:24.160Z,91.30
2018-06-11T20:10:53.394Z,91.00
2018-06-11T20:15:51.487Z,90.90
2018-06-11T20:18:20.705Z,91.10
2018-06-11T20:20:49.897Z,91.20
2018-06-11T20:23:19.035Z,91.10
2018-06-11T20:25:48.170Z,91.20
2018-06-11T20:28:17.468Z,91.00
2018-06-11T20:30:46.682Z,91.20
2018-06-11T20:33:15.899Z,91.10
2018-06-11T20:35:45.054Z,91.20
2018-06-11T20:38:14.261Z,91.30
2018-06-11T20:43:12.447Z,91.50
2018-06-11T20:45:41.653Z,91.60
2018-06-11T20:48:10.812Z,91.80
2018-06-11T20:50:39.988Z,91.80
2018-06-11T20:53:09.184Z,91.90
2018-06-11T20:55:38.396Z,91.90
2018-06-11T20:58:07.630Z,92.00
2018-06-11T21:00:36.846Z,92.10
2018-06-11T21:03:06.115Z,92.30
2018-06-11T21:05:35.316Z,92.40
2018-06-11T21:08:04.534Z,92.40
2018-06-11T21:13:02.482Z,92.30
2018-06-11T21:15:31.648Z,92.20
2018-06-11T21:18:00.821Z,92.00
2018-06-11T21:20:29.934Z,92.10
2018-06-11T21:22:59.250Z,92.20
2018-06-11T21:25:28.672Z,92.10
2018-06-11T21:27:57.910Z,92.30
2018-06-11T21:30:27.124Z,92.10
2018-06-11T21:32:56.301Z,91.90
2018-06-11T21:35:25.637Z,91.90
2018-06-11T21:37:54.790Z,91.70
2018-06-11T21:40:24.033Z,91.70
2018-06-11T21:42:53.193Z,91.60
2018-06-11T21:45:22.355Z,91.50
2018-06-11T21:47:51.562Z,91.60
2018-06-11T21:50:20.686Z,91.60
2018-06-11T21:52:49.827Z,91.40
2018-06-11T21:55:19.084Z,91.40
2018-06-11T21:57:48.172Z,91.20
2018-06-11T22:00:17.317Z,91.20
2018-06-11T22:02:46.470Z,91.60
2018-06-11T22:05:15.592Z,91.70
2018-06-11T22:07:44.762Z,92.20
2018-06-11T22:10:13.903Z,92.20
2018-06-11T22:12:43.065Z,92.20
2018-06-11T22:15:12.169Z,92.40
2018-06-11T22:17:41.437Z,92.50
2018-06-11T22:20:10.530Z,92.30
2018-06-11T22:22:39.741Z,92.20
2018-06-11T22:25:08.898Z,92.20
2018-06-11T22:27:38.267Z,91.90
2018-06-11T22:30:07.407Z,91.90
2018-06-11T22:32:36.549Z,92.00
2018-06-11T22:35:05.677Z,92.00
2018-06-11T22:37:34.816Z,92.00
2018-06-11T22:40:04.100Z,92.10
2018-06-11T22:42:33.234Z,92.10
2018-06-11T22:47:31.368Z,92.10
2018-06-11T22:50:00.521Z,92.00
2018-06-11T22:52:29.700Z,91.80
2018-06-11T22:54:58.824Z,91.50
2018-06-11T22:57:28.700Z,91.80
2018-06-11T22:59:57.818Z,92.20
2018-06-11T23:02:27.113Z,92.00
2018-06-11T23:04:56.310Z,92.20
2018-06-11T23:07:25.551Z,92.20
2018-06-11T23:09:56.367Z,92.40
2018-06-11T23:12:27.167Z,92.50
2018-06-11T23:14:57.940Z,92.40
2018-06-11T23:17:27.101Z,92.10
2018-06-11T23:19:56.223Z,92.30
2018-06-11T23:22:25.359Z,92.40
2018-06-11T23:24:54.514Z,92.60
2018-06-11T23:29:52.349Z,92.50
2018-06-11T23:32:21.522Z,92.80
2018-06-11T23:34:50.713Z,92.80
2018-06-11T23:37:19.796Z,92.90
2018-06-11T23:42:17.623Z,92.90
2018-06-11T23:44:47.647Z,92.90
2018-06-11T23:47:16.796Z,93.00
2018-06-11T23:49:45.994Z,92.90
2018-06-11T23:52:15.139Z,92.40
2018-06-11T23:54:44.290Z,92.60
2018-06-11T23:57:13.429Z,92.70
2018-06-11T23:59:42.672Z,92.50
